sensor_id;sensor_type;location;lat;lon;timestamp;pressure;altitude;pressure_sealevel;temperature;humidity
65760;BME280;52496;51.082;5.066;2023-05-07T00:01:46;101446.41;;;14.07;100.00
65760;BME280;52496;51.082;5.066;2023-05-07T00:04:17;101451.78;;;14.07;100.00
65760;BME280;52496;51.082;5.066;2023-05-07T00:06:47;101447.44;;;14.06;100.00
65760;BME280;52496;51.082;5.066;2023-05-07T00:09:18;101452.16;;;14.04;100.00
65760;BME280;52496;51.082;5.066;2023-05-07T00:11:48;101450.50;;;14.03;100.00
65760;BME280;52496;51.082;5.066;2023-05-07T00:14:19;101447.16;;;14.01;100.00
65760;BME280;52496;51.082;5.066;2023-05-07T00:16:50;101451.72;;;14.00;100.00
65760;BME280;52496;51.082;5.066;2023-05-07T00:19:21;101448.22;;;14.00;100.00
65760;BME280;52496;51.082;5.066;2023-05-07T00:21:51;101447.16;;;14.01;100.00
65760;BME280;52496;51.082;5.066;2023-05-07T00:24:24;101451.72;;;14.00;100.00
65760;BME280;52496;51.082;5.066;2023-05-07T00:26:54;101457.94;;;14.01;100.00
65760;BME280;52496;51.082;5.066;2023-05-07T00:29:25;101446.34;;;14.00;100.00
65760;BME280;52496;51.082;5.066;2023-05-07T00:31:55;101448.00;;;14.02;100.00
65760;BME280;52496;51.082;5.066;2023-05-07T00:34:26;101450.50;;;14.03;100.00
65760;BME280;52496;51.082;5.066;2023-05-07T00:36:56;101442.44;;;14.03;100.00
65760;BME280;52496;51.082;5.066;2023-05-07T00:39:27;101445.97;;;14.04;100.00
65760;BME280;52496;51.082;5.066;2023-05-07T00:41:57;101441.41;;;14.04;100.00
65760;BME280;52496;51.082;5.066;2023-05-07T00:44:30;101445.13;;;14.03;100.00
65760;BME280;52496;51.082;5.066;2023-05-07T00:47:03;101443.06;;;14.05;100.00
65760;BME280;52496;51.082;5.066;2023-05-07T00:49:44;101436.03;;;14.04;100.00
65760;BME280;52496;51.082;5.066;2023-05-07T00:52:16;101431.69;;;14.03;100.00
65760;BME280;52496;51.082;5.066;2023-05-07T00:54:47;101424.44;;;14.04;100.00
65760;BME280;52496;51.082;5.066;2023-05-07T00:57:18;101419.91;;;14.04;100.00
65760;BME280;52496;51.082;5.066;2023-05-07T00:59:51;101426.09;;;14.05;100.00
65760;BME280;52496;51.082;5.066;2023-05-07T01:02:22;101421.53;;;14.05;100.00
65760;BME280;52496;51.082;5.066;2023-05-07T01:04:52;101426.94;;;14.05;100.00
65760;BME280;52496;51.082;5.066;2023-05-07T01:07:23;101423.22;;;14.06;100.00
65760;BME280;52496;51.082;5.066;2023-05-07T01:09:54;101427.75;;;14.06;100.00
65760;BME280;52496;51.082;5.066;2023-05-07T01:12:25;101415.16;;;14.06;100.00
65760;BME280;52496;51.082;5.066;2023-05-07T01:14:56;101415.16;;;14.06;100.00
65760;BME280;52496;51.082;5.066;2023-05-07T01:17:26;101416.16;;;14.05;100.00
65760;BME280;52496;51.082;5.066;2023-05-07T01:19:57;101416.16;;;14.05;100.00
65760;BME280;52496;51.082;5.066;2023-05-07T01:22:31;101406.22;;;14.06;100.00
65760;BME280;52496;51.082;5.066;2023-05-07T01:25:06;101398.00;;;14.07;100.00
65760;BME280;52496;51.082;5.066;2023-05-07T01:27:37;101399.66;;;14.08;100.00
65760;BME280;52496;51.082;5.066;2023-05-07T01:30:08;101398.44;;;14.11;100.00
65760;BME280;52496;51.082;5.066;2023-05-07T01:32:53;101394.69;;;14.12;100.00
65760;BME280;52496;51.082;5.066;2023-05-07T01:35:34;101390.19;;;14.12;100.00
65760;BME280;52496;51.082;5.066;2023-05-07T01:38:07;101381.25;;;14.12;100.00
65760;BME280;52496;51.082;5.066;2023-05-07T01:40:38;101383.94;;;14.12;100.00
65760;BME280;52496;51.082;5.066;2023-05-07T01:43:10;101379.41;;;14.12;100.00
65760;BME280;52496;51.082;5.066;2023-05-07T01:45:41;101380.03;;;14.14;100.00
65760;BME280;52496;51.082;5.066;2023-05-07T01:48:13;101386.44;;;14.13;100.00
65760;BME280;52496;51.082;5.066;2023-05-07T01:50:44;101389.16;;;14.13;100.00
65760;BME280;52496;51.082;5.066;2023-05-07T01:53:15;101388.50;;;14.11;100.00
65760;BME280;52496;51.082;5.066;2023-05-07T01:55:46;101389.72;;;14.09;100.00
65760;BME280;52496;51.082;5.066;2023-05-07T01:58:17;101391.97;;;14.05;100.00
65760;BME280;52496;51.082;5.066;2023-05-07T02:00:47;101402.09;;;14.03;100.00
65760;BME280;52496;51.082;5.066;2023-05-07T02:03:18;101403.31;;;14.00;100.00
65760;BME280;52496;51.082;5.066;2023-05-07T02:05:48;101397.94;;;14.00;100.00
65760;BME280;52496;51.082;5.066;2023-05-07T02:08:19;101403.50;;;13.99;100.00
65760;BME280;52496;51.082;5.066;2023-05-07T02:10:49;101402.88;;;13.97;100.00
65760;BME280;52496;51.082;5.066;2023-05-07T02:13:21;101404.72;;;13.96;100.00
65760;BME280;52496;51.082;5.066;2023-05-07T02:15:53;101406.56;;;13.96;100.00
65760;BME280;52496;51.082;5.066;2023-05-07T02:18:24;101404.91;;;13.95;100.00
65760;BME280;52496;51.082;5.066;2023-05-07T02:20:54;101405.75;;;13.95;100.00
65760;BME280;52496;51.082;5.066;2023-05-07T02:23:25;101395.81;;;13.96;100.00
65760;BME280;52496;51.082;5.066;2023-05-07T02:25:55;101402.88;;;13.97;100.00
65760;BME280;52496;51.082;5.066;2023-05-07T02:28:26;101407.22;;;13.98;100.00
65760;BME280;52496;51.082;5.066;2023-05-07T02:30:57;101409.91;;;13.98;100.00
65760;BME280;52496;51.082;5.066;2023-05-07T02:33:28;101413.41;;;13.98;100.00
65760;BME280;52496;51.082;5.066;2023-05-07T02:36:10;101416.31;;;13.97;100.00
65760;BME280;52496;51.082;5.066;2023-05-07T02:38:41;101414.47;;;13.97;100.00
65760;BME280;52496;51.082;5.066;2023-05-07T02:41:12;101411.13;;;13.95;100.00
65760;BME280;52496;51.082;5.066;2023-05-07T02:43:42;101411.31;;;13.94;100.00
65760;BME280;52496;51.082;5.066;2023-05-07T02:46:13;101421.06;;;13.95;100.00
65760;BME280;52496;51.082;5.066;2023-05-07T02:48:43;101410.47;;;13.93;100.00
65760;BME280;52496;51.082;5.066;2023-05-07T02:51:14;101407.59;;;13.95;100.00
65760;BME280;52496;51.082;5.066;2023-05-07T02:53:44;101408.63;;;13.94;100.00
65760;BME280;52496;51.082;5.066;2023-05-07T02:56:15;101411.50;;;13.92;100.00
65760;BME280;52496;51.082;5.066;2023-05-07T02:58:45;101406.34;;;13.91;100.00
65760;BME280;52496;51.082;5.066;2023-05-07T03:01:16;101403.66;;;13.91;100.00
65760;BME280;52496;51.082;5.066;2023-05-07T03:03:46;101395.75;;;13.89;100.00
65760;BME280;52496;51.082;5.066;2023-05-07T03:06:17;101388.72;;;13.88;100.00
65760;BME280;52496;51.082;5.066;2023-05-07T03:08:48;101398.66;;;13.88;100.00
65760;BME280;52496;51.082;5.066;2023-05-07T03:11:18;101394.28;;;13.87;100.00
65760;BME280;52496;51.082;5.066;2023-05-07T03:13:52;101393.28;;;13.88;100.00
65760;BME280;52496;51.082;5.066;2023-05-07T03:16:23;101393.28;;;13.88;100.00
65760;BME280;52496;51.082;5.066;2023-05-07T03:18:53;101398.66;;;13.88;100.00
65760;BME280;52496;51.082;5.066;2023-05-07T03:21:24;101396.16;;;13.86;100.00
65760;BME280;52496;51.082;5.066;2023-05-07T03:23:56;101395.31;;;13.86;100.00
65760;BME280;52496;51.082;5.066;2023-05-07T03:26:27;101389.94;;;13.86;100.00
65760;BME280;52496;51.082;5.066;2023-05-07T03:28:57;101400.69;;;13.86;100.00
65760;BME280;52496;51.082;5.066;2023-05-07T03:31:28;101401.72;;;13.85;100.00
65760;BME280;52496;51.082;5.066;2023-05-07T03:33:58;101404.41;;;13.85;100.00
65760;BME280;52496;51.082;5.066;2023-05-07T03:36:29;101403.56;;;13.84;100.00
65760;BME280;52496;51.082;5.066;2023-05-07T03:39:00;101401.06;;;13.83;100.00
65760;BME280;52496;51.082;5.066;2023-05-07T03:41:32;101406.47;;;13.83;100.00
65760;BME280;52496;51.082;5.066;2023-05-07T03:44:22;101409.16;;;13.83;100.00
65760;BME280;52496;51.082;5.066;2023-05-07T03:46:52;101411.00;;;13.82;100.00
65760;BME280;52496;51.082;5.066;2023-05-07T03:49:25;101408.31;;;13.82;100.00
65760;BME280;52496;51.082;5.066;2023-05-07T03:51:55;101415.56;;;13.82;100.00
65760;BME280;52496;51.082;5.066;2023-05-07T03:54:27;101408.50;;;13.81;100.00
65760;BME280;52496;51.082;5.066;2023-05-07T03:56:58;101400.44;;;13.81;100.00
65760;BME280;52496;51.082;5.066;2023-05-07T03:59:28;101410.19;;;13.82;100.00
65760;BME280;52496;51.082;5.066;2023-05-07T04:01:59;101409.16;;;13.83;100.00
65760;BME280;52496;51.082;5.066;2023-05-07T04:04:30;101408.09;;;13.84;100.00
65760;BME280;52496;51.082;5.066;2023-05-07T04:07:03;101410.63;;;13.85;100.00
65760;BME280;52496;51.082;5.066;2023-05-07T04:09:34;101414.78;;;13.88;100.00
65760;BME280;52496;51.082;5.066;2023-05-07T04:12:05;101410.03;;;13.90;100.00
65760;BME280;52496;51.082;5.066;2023-05-07T04:14:35;101408.63;;;13.94;100.00
65760;BME280;52496;51.082;5.066;2023-05-07T04:17:06;101427.91;;;13.97;100.00
65760;BME280;52496;51.082;5.066;2023-05-07T04:19:37;101413.25;;;14.00;100.00
65760;BME280;52496;51.082;5.066;2023-05-07T04:22:09;101419.25;;;14.02;100.00
65760;BME280;52496;51.082;5.066;2023-05-07T04:24:40;101425.91;;;14.06;100.00
65760;BME280;52496;51.082;5.066;2023-05-07T04:27:10;101422.00;;;14.09;100.00
65760;BME280;52496;51.082;5.066;2023-05-07T04:29:41;101419.13;;;14.10;100.00
65760;BME280;52496;51.082;5.066;2023-05-07T04:32:13;101417.69;;;14.14;100.00
65760;BME280;52496;51.082;5.066;2023-05-07T04:34:43;101413.78;;;14.17;100.00
65760;BME280;52496;51.082;5.066;2023-05-07T04:37:13;101403.69;;;14.19;100.00
65760;BME280;52496;51.082;5.066;2023-05-07T04:39:44;101406.81;;;14.22;100.00
65760;BME280;52496;51.082;5.066;2023-05-07T04:42:15;101401.03;;;14.26;100.00
65760;BME280;52496;51.082;5.066;2023-05-07T04:44:46;101402.31;;;14.30;100.00
65760;BME280;52496;51.082;5.066;2023-05-07T04:47:16;101407.28;;;14.33;100.00
65760;BME280;52496;51.082;5.066;2023-05-07T04:49:48;101398.81;;;14.36;100.00
65760;BME280;52496;51.082;5.066;2023-05-07T04:52:18;101402.81;;;14.40;100.00
65760;BME280;52496;51.082;5.066;2023-05-07T04:54:48;101407.81;;;14.43;100.00
65760;BME280;52496;51.082;5.066;2023-05-07T04:57:19;101405.31;;;14.48;100.00
65760;BME280;52496;51.082;5.066;2023-05-07T04:59:50;101411.34;;;14.50;100.00
65760;BME280;52496;51.082;5.066;2023-05-07T05:02:20;101413.50;;;14.55;100.00
65760;BME280;52496;51.082;5.066;2023-05-07T05:04:51;101420.16;;;14.59;100.00
65760;BME280;52496;51.082;5.066;2023-05-07T05:07:21;101417.72;;;14.64;100.00
65760;BME280;52496;51.082;5.066;2023-05-07T05:09:52;101428.69;;;14.69;100.00
65760;BME280;52496;51.082;5.066;2023-05-07T05:12:22;101427.06;;;14.75;100.00
65760;BME280;52496;51.082;5.066;2023-05-07T05:14:52;101426.69;;;14.78;100.00
65760;BME280;52496;51.082;5.066;2023-05-07T05:17:23;101426.28;;;14.81;100.00
65760;BME280;52496;51.082;5.066;2023-05-07T05:19:53;101433.56;;;14.87;100.00
65760;BME280;52496;51.082;5.066;2023-05-07T05:22:24;101440.22;;;14.91;100.00
65760;BME280;52496;51.082;5.066;2023-05-07T05:24:55;101446.88;;;14.95;100.00
65760;BME280;52496;51.082;5.066;2023-05-07T05:27:26;101448.34;;;14.98;100.00
65760;BME280;52496;51.082;5.066;2023-05-07T05:29:56;101449.78;;;15.00;100.00
65760;BME280;52496;51.082;5.066;2023-05-07T05:32:31;101450.03;;;15.05;100.00
65760;BME280;52496;51.082;5.066;2023-05-07T05:35:01;101444.91;;;15.10;100.00
65760;BME280;52496;51.082;5.066;2023-05-07T05:37:32;101447.63;;;15.17;100.00
65760;BME280;52496;51.082;5.066;2023-05-07T05:40:02;101451.38;;;15.23;100.00
65760;BME280;52496;51.082;5.066;2023-05-07T05:42:33;101451.22;;;15.31;100.00
65760;BME280;52496;51.082;5.066;2023-05-07T05:45:04;101455.81;;;15.37;100.00
65760;BME280;52496;51.082;5.066;2023-05-07T05:47:35;101450.63;;;15.42;100.00
65760;BME280;52496;51.082;5.066;2023-05-07T05:50:06;101455.22;;;15.48;100.00
65760;BME280;52496;51.082;5.066;2023-05-07T05:52:38;101449.84;;;15.55;100.00
65760;BME280;52496;51.082;5.066;2023-05-07T05:55:09;101451.94;;;15.59;100.00
65760;BME280;52496;51.082;5.066;2023-05-07T05:57:42;101455.31;;;15.68;100.00
65760;BME280;52496;51.082;5.066;2023-05-07T06:00:13;101447.88;;;15.77;100.00
65760;BME280;52496;51.082;5.066;2023-05-07T06:02:44;101455.97;;;15.90;100.00
65760;BME280;52496;51.082;5.066;2023-05-07T06:05:14;101459.75;;;16.02;100.00
65760;BME280;52496;51.082;5.066;2023-05-07T06:07:45;101453.75;;;16.14;100.00
65760;BME280;52496;51.082;5.066;2023-05-07T06:10:16;101458.31;;;16.26;100.00
65760;BME280;52496;51.082;5.066;2023-05-07T06:12:46;101459.97;;;16.34;100.00
65760;BME280;52496;51.082;5.066;2023-05-07T06:15:17;101462.28;;;16.44;100.00
65760;BME280;52496;51.082;5.066;2023-05-07T06:17:47;101455.81;;;16.51;100.00
65760;BME280;52496;51.082;5.066;2023-05-07T06:20:19;101451.25;;;16.59;100.00
65760;BME280;52496;51.082;5.066;2023-05-07T06:22:49;101459.94;;;16.61;100.00
65760;BME280;52496;51.082;5.066;2023-05-07T06:25:20;101448.72;;;16.64;100.00
65760;BME280;52496;51.082;5.066;2023-05-07T06:27:50;101455.81;;;16.71;100.00
65760;BME280;52496;51.082;5.066;2023-05-07T06:30:22;101462.88;;;16.79;100.00
65760;BME280;52496;51.082;5.066;2023-05-07T06:32:52;101465.34;;;16.87;100.00
65760;BME280;52496;51.082;5.066;2023-05-07T06:35:23;101454.94;;;16.97;100.00
65760;BME280;52496;51.082;5.066;2023-05-07T06:37:53;101465.31;;;17.07;100.00
65760;BME280;52496;51.082;5.066;2023-05-07T06:40:24;101470.72;;;17.14;100.00
65760;BME280;52496;51.082;5.066;2023-05-07T06:42:54;101477.75;;;17.15;100.00
65760;BME280;52496;51.082;5.066;2023-05-07T06:45:25;101481.25;;;17.22;100.00
65760;BME280;52496;51.082;5.066;2023-05-07T06:47:55;101477.69;;;17.28;100.00
65760;BME280;52496;51.082;5.066;2023-05-07T06:50:26;101475.00;;;17.28;100.00
65760;BME280;52496;51.082;5.066;2023-05-07T06:52:57;101466.88;;;17.28;100.00
65760;BME280;52496;51.082;5.066;2023-05-07T06:55:27;101480.59;;;17.33;100.00
65760;BME280;52496;51.082;5.066;2023-05-07T06:57:58;101474.97;;;17.41;100.00
65760;BME280;52496;51.082;5.066;2023-05-07T07:00:31;101482.22;;;17.48;100.00
65760;BME280;52496;51.082;5.066;2023-05-07T07:03:02;101484.22;;;17.59;100.00
65760;BME280;52496;51.082;5.066;2023-05-07T07:05:33;101485.25;;;17.71;100.00
65760;BME280;52496;51.082;5.066;2023-05-07T07:08:03;101493.75;;;17.81;100.00
65760;BME280;52496;51.082;5.066;2023-05-07T07:10:34;101499.69;;;17.97;100.00
65760;BME280;52496;51.082;5.066;2023-05-07T07:13:05;101493.16;;;18.11;100.00
65760;BME280;52496;51.082;5.066;2023-05-07T07:15:35;101495.81;;;18.18;100.00
65760;BME280;52496;51.082;5.066;2023-05-07T07:18:06;101498.06;;;18.21;100.00
65760;BME280;52496;51.082;5.066;2023-05-07T07:20:37;101506.16;;;18.27;100.00
65760;BME280;52496;51.082;5.066;2023-05-07T07:23:07;101501.41;;;18.48;100.00
65760;BME280;52496;51.082;5.066;2023-05-07T07:25:38;101500.22;;;18.62;100.00
65760;BME280;52496;51.082;5.066;2023-05-07T07:28:08;101503.91;;;18.74;100.00
65760;BME280;52496;51.082;5.066;2023-05-07T07:30:40;101505.44;;;18.89;100.00
65760;BME280;52496;51.082;5.066;2023-05-07T07:33:11;101505.09;;;19.03;100.00
65760;BME280;52496;51.082;5.066;2023-05-07T07:35:42;101508.09;;;19.14;100.00
65760;BME280;52496;51.082;5.066;2023-05-07T07:38:12;101501.13;;;19.24;100.00
65760;BME280;52496;51.082;5.066;2023-05-07T07:40:43;101502.47;;;19.34;100.00
65760;BME280;52496;51.082;5.066;2023-05-07T07:43:14;101508.19;;;19.44;100.00
65760;BME280;52496;51.082;5.066;2023-05-07T07:45:45;101506.97;;;19.58;100.00
65760;BME280;52496;51.082;5.066;2023-05-07T07:48:16;101506.59;;;19.73;100.00
65760;BME280;52496;51.082;5.066;2023-05-07T07:50:49;101508.31;;;19.86;100.00
65760;BME280;52496;51.082;5.066;2023-05-07T07:53:21;101521.09;;;19.97;100.00
65760;BME280;52496;51.082;5.066;2023-05-07T07:55:51;101518.66;;;20.07;100.00
65760;BME280;52496;51.082;5.066;2023-05-07T07:58:22;101518.91;;;20.17;100.00
65760;BME280;52496;51.082;5.066;2023-05-07T08:00:53;101517.53;;;20.27;100.00
65760;BME280;52496;51.082;5.066;2023-05-07T08:03:26;101512.81;;;20.34;100.00
65760;BME280;52496;51.082;5.066;2023-05-07T08:05:57;101519.22;;;20.39;100.00
65760;BME280;52496;51.082;5.066;2023-05-07T08:08:27;101511.44;;;20.43;100.00
65760;BME280;52496;51.082;5.066;2023-05-07T08:10:58;101518.81;;;20.54;100.00
65760;BME280;52496;51.082;5.066;2023-05-07T08:13:28;101521.16;;;20.62;100.00
65760;BME280;52496;51.082;5.066;2023-05-07T08:15:59;101530.75;;;20.65;100.00
65760;BME280;52496;51.082;5.066;2023-05-07T08:18:30;101519.66;;;20.67;100.00
65760;BME280;52496;51.082;5.066;2023-05-07T08:21:01;101520.09;;;20.75;100.00
65760;BME280;52496;51.082;5.066;2023-05-07T08:23:31;101517.97;;;20.77;100.00
65760;BME280;52496;51.082;5.066;2023-05-07T08:26:05;101516.69;;;20.80;100.00
65760;BME280;52496;51.082;5.066;2023-05-07T08:28:35;101520.00;;;20.82;100.00
65760;BME280;52496;51.082;5.066;2023-05-07T08:31:06;101524.84;;;20.92;100.00
65760;BME280;52496;51.082;5.066;2023-05-07T08:33:36;101524.94;;;21.08;100.00
65760;BME280;52496;51.082;5.066;2023-05-07T08:36:08;101523.03;;;21.21;100.00
65760;BME280;52496;51.082;5.066;2023-05-07T08:38:38;101522.69;;;21.29;100.00
65760;BME280;52496;51.082;5.066;2023-05-07T08:41:10;101527.06;;;21.42;100.00
65760;BME280;52496;51.082;5.066;2023-05-07T08:43:41;101522.66;;;21.52;97.03
65760;BME280;52496;51.082;5.066;2023-05-07T08:46:19;101529.38;;;21.62;98.32
65760;BME280;52496;51.082;5.066;2023-05-07T08:48:51;101533.03;;;21.67;98.43
65760;BME280;52496;51.082;5.066;2023-05-07T08:51:22;101530.22;;;21.62;96.51
65760;BME280;52496;51.082;5.066;2023-05-07T08:53:52;101536.00;;;21.66;97.03
65760;BME280;52496;51.082;5.066;2023-05-07T08:56:23;101538.81;;;21.71;96.68
65760;BME280;52496;51.082;5.066;2023-05-07T08:58:54;101538.34;;;21.74;97.83
65760;BME280;52496;51.082;5.066;2023-05-07T09:01:28;101542.34;;;21.83;97.85
65760;BME280;52496;51.082;5.066;2023-05-07T09:03:59;101545.25;;;21.93;97.83
65760;BME280;52496;51.082;5.066;2023-05-07T09:06:30;101554.13;;;22.01;97.07
65760;BME280;52496;51.082;5.066;2023-05-07T09:09:00;101550.75;;;22.10;96.40
65760;BME280;52496;51.082;5.066;2023-05-07T09:11:31;101556.16;;;22.22;95.73
65760;BME280;52496;51.082;5.066;2023-05-07T09:14:02;101553.03;;;22.30;92.83
65760;BME280;52496;51.082;5.066;2023-05-07T09:16:32;101557.44;;;22.31;91.22
65760;BME280;52496;51.082;5.066;2023-05-07T09:19:03;101553.38;;;22.34;89.48
65760;BME280;52496;51.082;5.066;2023-05-07T09:21:33;101546.75;;;22.30;91.24
65760;BME280;52496;51.082;5.066;2023-05-07T09:24:05;101553.28;;;22.29;92.10
65760;BME280;52496;51.082;5.066;2023-05-07T09:26:35;101555.19;;;22.28;94.23
65760;BME280;52496;51.082;5.066;2023-05-07T09:29:08;101565.09;;;22.34;91.99
65760;BME280;52496;51.082;5.066;2023-05-07T09:31:40;101553.50;;;22.27;90.82
65760;BME280;52496;51.082;5.066;2023-05-07T09:34:11;101562.78;;;22.26;91.88
65760;BME280;52496;51.082;5.066;2023-05-07T09:36:41;101557.91;;;22.28;91.19
65760;BME280;52496;51.082;5.066;2023-05-07T09:39:13;101565.66;;;22.36;90.77
65760;BME280;52496;51.082;5.066;2023-05-07T09:41:45;101563.97;;;22.47;92.17
65760;BME280;52496;51.082;5.066;2023-05-07T09:46:49;101562.44;;;22.39;89.80
65760;BME280;52496;51.082;5.066;2023-05-07T09:49:23;101575.69;;;22.31;91.88
65760;BME280;52496;51.082;5.066;2023-05-07T09:51:55;101571.03;;;22.31;91.48
65760;BME280;52496;51.082;5.066;2023-05-07T09:54:27;101581.88;;;22.14;90.52
65760;BME280;52496;51.082;5.066;2023-05-07T09:57:01;101581.41;;;22.06;92.97
65760;BME280;52496;51.082;5.066;2023-05-07T09:59:37;101580.00;;;22.03;93.01
65760;BME280;52496;51.082;5.066;2023-05-07T10:02:09;101579.09;;;21.97;92.26
65760;BME280;52496;51.082;5.066;2023-05-07T10:04:40;101594.38;;;21.98;91.74
65760;BME280;52496;51.082;5.066;2023-05-07T10:07:11;101590.06;;;22.03;92.55
65760;BME280;52496;51.082;5.066;2023-05-07T10:09:42;101591.28;;;22.07;92.17
65760;BME280;52496;51.082;5.066;2023-05-07T10:12:14;101594.00;;;22.07;91.83
65760;BME280;52496;51.082;5.066;2023-05-07T10:14:46;101596.50;;;21.96;93.11
65760;BME280;52496;51.082;5.066;2023-05-07T10:17:19;101590.97;;;21.91;95.45
65760;BME280;52496;51.082;5.066;2023-05-07T10:19:50;101598.41;;;21.96;96.09
65760;BME280;52496;51.082;5.066;2023-05-07T10:22:24;101598.72;;;21.99;95.08
65760;BME280;52496;51.082;5.066;2023-05-07T10:24:59;101612.34;;;21.99;95.08
65760;BME280;52496;51.082;5.066;2023-05-07T10:27:31;101605.25;;;21.98;94.91
65760;BME280;52496;51.082;5.066;2023-05-07T10:30:15;101613.31;;;21.93;92.82
65760;BME280;52496;51.082;5.066;2023-05-07T10:32:51;101615.25;;;21.81;91.19
65760;BME280;52496;51.082;5.066;2023-05-07T10:35:29;101617.66;;;21.66;93.18
65760;BME280;52496;51.082;5.066;2023-05-07T10:38:03;101622.16;;;21.48;93.41
65760;BME280;52496;51.082;5.066;2023-05-07T10:40:34;101626.91;;;21.41;94.97
65760;BME280;52496;51.082;5.066;2023-05-07T10:43:05;101623.03;;;21.37;95.34
65760;BME280;52496;51.082;5.066;2023-05-07T10:45:36;101624.28;;;21.35;100.00
65760;BME280;52496;51.082;5.066;2023-05-07T10:48:13;101629.50;;;21.24;96.94
65760;BME280;52496;51.082;5.066;2023-05-07T10:50:45;101627.47;;;21.08;99.58
65760;BME280;52496;51.082;5.066;2023-05-07T10:55:50;101637.16;;;20.92;100.00
65760;BME280;52496;51.082;5.066;2023-05-07T10:58:25;101639.16;;;20.85;100.00
65760;BME280;52496;51.082;5.066;2023-05-07T11:01:01;101643.28;;;20.76;100.00
65760;BME280;52496;51.082;5.066;2023-05-07T11:03:32;101636.59;;;20.60;100.00
65760;BME280;52496;51.082;5.066;2023-05-07T11:06:15;101643.47;;;20.44;100.00
65760;BME280;52496;51.082;5.066;2023-05-07T11:08:53;101642.38;;;20.33;100.00
65760;BME280;52496;51.082;5.066;2023-05-07T11:11:51;101637.94;;;20.21;100.00
65760;BME280;52496;51.082;5.066;2023-05-07T11:17:11;101639.84;;;20.02;100.00
65760;BME280;52496;51.082;5.066;2023-05-07T11:19:53;101640.84;;;19.89;100.00
65760;BME280;52496;51.082;5.066;2023-05-07T11:25:02;101637.69;;;19.74;100.00
65760;BME280;52496;51.082;5.066;2023-05-07T11:27:33;101635.59;;;19.76;100.00
65760;BME280;52496;51.082;5.066;2023-05-07T11:30:04;101632.44;;;19.79;100.00
65760;BME280;52496;51.082;5.066;2023-05-07T11:32:35;101632.72;;;19.70;100.00
65760;BME280;52496;51.082;5.066;2023-05-07T11:35:06;101631.53;;;19.66;100.00
65760;BME280;52496;51.082;5.066;2023-05-07T11:37:37;101635.69;;;19.62;100.00
65760;BME280;52496;51.082;5.066;2023-05-07T11:40:08;101636.13;;;19.59;100.00
65760;BME280;52496;51.082;5.066;2023-05-07T11:42:41;101633.28;;;19.54;100.00
65760;BME280;52496;51.082;5.066;2023-05-07T11:45:23;101630.78;;;19.53;100.00
65760;BME280;52496;51.082;5.066;2023-05-07T11:47:55;101632.88;;;19.51;100.00
65760;BME280;52496;51.082;5.066;2023-05-07T11:50:25;101637.28;;;19.52;100.00
65760;BME280;52496;51.082;5.066;2023-05-07T11:52:56;101643.28;;;19.54;100.00
65760;BME280;52496;51.082;5.066;2023-05-07T11:55:27;101638.09;;;19.52;100.00
65760;BME280;52496;51.082;5.066;2023-05-07T11:57:57;101640.00;;;19.52;100.00
65760;BME280;52496;51.082;5.066;2023-05-07T12:00:29;101641.81;;;19.58;100.00
65760;BME280;52496;51.082;5.066;2023-05-07T12:03:04;101643.06;;;19.55;100.00
65760;BME280;52496;51.082;5.066;2023-05-07T12:05:35;101640.81;;;19.52;100.00
65760;BME280;52496;51.082;5.066;2023-05-07T12:08:07;101642.91;;;19.50;100.00
65760;BME280;52496;51.082;5.066;2023-05-07T12:10:43;101646.06;;;19.47;100.00
65760;BME280;52496;51.082;5.066;2023-05-07T12:13:18;101648.34;;;19.50;100.00
65760;BME280;52496;51.082;5.066;2023-05-07T12:15:56;101650.22;;;19.49;100.00
65760;BME280;52496;51.082;5.066;2023-05-07T12:18:27;101654.38;;;19.52;100.00
65760;BME280;52496;51.082;5.066;2023-05-07T12:20:58;101651.59;;;19.59;100.00
65760;BME280;52496;51.082;5.066;2023-05-07T12:23:29;101652.16;;;19.67;100.00
65760;BME280;52496;51.082;5.066;2023-05-07T12:26:00;101651.25;;;19.74;100.00
65760;BME280;52496;51.082;5.066;2023-05-07T12:28:32;101655.16;;;19.78;100.00
65760;BME280;52496;51.082;5.066;2023-05-07T12:31:07;101653.44;;;19.83;100.00
65760;BME280;52496;51.082;5.066;2023-05-07T12:33:40;101651.25;;;19.92;100.00
65760;BME280;52496;51.082;5.066;2023-05-07T12:36:12;101650.25;;;20.05;100.00
65760;BME280;52496;51.082;5.066;2023-05-07T12:38:43;101647.09;;;20.08;100.00
65760;BME280;52496;51.082;5.066;2023-05-07T12:41:13;101651.94;;;20.06;100.00
65760;BME280;52496;51.082;5.066;2023-05-07T12:43:44;101650.63;;;20.08;100.00
65760;BME280;52496;51.082;5.066;2023-05-07T12:46:15;101654.56;;;20.12;100.00
65760;BME280;52496;51.082;5.066;2023-05-07T12:48:49;101660.72;;;20.20;100.00
65760;BME280;52496;51.082;5.066;2023-05-07T12:51:20;101664.63;;;20.24;100.00
65760;BME280;52496;51.082;5.066;2023-05-07T12:53:56;101657.56;;;20.23;100.00
65760;BME280;52496;51.082;5.066;2023-05-07T12:56:27;101666.78;;;20.22;100.00
65760;BME280;52496;51.082;5.066;2023-05-07T12:59:01;101663.00;;;20.23;100.00
65760;BME280;52496;51.082;5.066;2023-05-07T13:01:34;101668.06;;;20.19;100.00
65760;BME280;52496;51.082;5.066;2023-05-07T13:04:04;101671.84;;;20.18;100.00
65760;BME280;52496;51.082;5.066;2023-05-07T13:06:35;101673.34;;;20.14;100.00
65760;BME280;52496;51.082;5.066;2023-05-07T13:09:06;101671.53;;;20.08;100.00
65760;BME280;52496;51.082;5.066;2023-05-07T13:11:37;101676.97;;;20.08;100.00
65760;BME280;52496;51.082;5.066;2023-05-07T13:14:07;101682.84;;;20.05;100.00